Time;durP1;ratioP1;P1;durP2;ratioP2;P2;SDS_P1;SDS_P2;PMS_P1;PMS_P2;Temp;Humidity;BMP_temperature;BMP_pressure;BME280_temperature;BME280_humidity;BME280_pressure;Samples;Min_cycle;Max_cycle;Signal;HPM_P1;HPM_P2
2023/07/10 00:02:44;;;;;;;6.10;5.28;;;;;;;25.93;31.26;87691.69;4904414;29;20686;-87
2023/07/10 00:29:46;;;;;;;;;;;;;;;;;;;;;
2023/07/10 00:32:17;;;;;;;5.13;4.32;;;;;;;25.93;28.99;87035.53;4820216;29;20220;-88
2023/07/10 00:34:44;;;;;;;4.78;4.18;;;;;;;25.94;29.37;87042.22;4869865;29;20231;-88
2023/07/10 00:37:10;;;;;;;4.43;3.90;;;;;;;25.99;29.09;87013.25;4937211;28;20204;-90
2023/07/10 00:39:38;;;;;;;4.88;4.05;;;;;;;25.95;29.66;87019.97;4966431;28;20204;-88
2023/07/10 00:42:17;;;;;;;4.40;3.88;;;;;;;25.83;29.58;86969.22;4969049;28;20208;-87
2023/07/10 00:44:48;;;;;;;5.97;4.20;;;;;;;25.78;29.73;86980.50;4968767;28;20236;-89
2023/07/10 00:47:20;;;;;;;3.75;3.45;;;;;;;25.86;29.63;87013.03;4961368;28;20285;-88
2023/07/10 00:49:58;;;;;;;4.65;3.83;;;;;;;25.91;30.01;87101.06;4967265;28;20262;-88
2023/07/10 00:52:29;;;;;;;4.78;4.15;;;;;;;25.91;30.03;87108.97;4968012;28;20199;-88
2023/07/10 00:55:00;;;;;;;6.07;4.18;;;;;;;25.91;29.84;87112.31;4968995;28;20242;-88
2023/07/10 00:57:47;;;;;;;4.05;3.75;;;;;;;25.85;29.73;87053.69;4961469;28;20203;-87
2023/07/10 01:00:20;;;;;;;5.15;3.88;;;;;;;25.90;29.69;87042.47;4966786;28;20228;-87
2023/07/10 01:02:57;;;;;;;4.70;3.67;;;;;;;25.88;30.13;87078.34;4968673;28;20204;-89
2023/07/10 01:05:28;;;;;;;5.72;4.00;;;;;;;25.84;29.91;87064.69;4972318;28;20219;-88
2023/07/10 01:07:58;;;;;;;7.75;4.25;;;;;;;25.77;30.48;87069.25;4947285;28;20229;-89
2023/07/10 01:10:24;;;;;;;4.93;4.10;;;;;;;25.77;30.04;87098.19;4968849;28;20208;-90
2023/07/10 01:13:00;;;;;;;6.68;3.65;;;;;;;25.77;30.18;87034.31;4968704;28;20192;-89
2023/07/10 01:15:27;;;;;;;5.25;3.63;;;;;;;25.73;30.20;87045.09;4968382;28;20218;-88
2023/07/10 01:17:55;;;;;;;5.28;3.90;;;;;;;25.72;30.21;87037.66;4971518;28;20203;-88
2023/07/10 01:20:45;;;;;;;4.53;4.05;;;;;;;25.71;30.71;87086.94;4969273;28;20226;-89
2023/07/10 01:23:16;;;;;;;4.63;3.92;;;;;;;25.74;30.17;87038.63;4966580;28;20674;-88
2023/07/10 01:26:03;;;;;;;6.32;4.13;;;;;;;25.77;30.08;87082.41;4966636;28;20216;-87
2023/07/10 01:28:33;;;;;;;4.22;3.83;;;;;;;25.75;30.53;87103.22;4972236;28;20254;-88
2023/07/10 01:31:03;;;;;;;4.72;3.63;;;;;;;25.72;30.19;87077.84;4971737;28;20210;-88
2023/07/10 01:33:40;;;;;;;4.10;3.70;;;;;;;25.69;30.36;87091.94;4972114;28;20214;-88
2023/07/10 01:36:09;;;;;;;4.03;3.63;;;;;;;25.69;30.55;87025.44;4971874;28;20218;-89
2023/07/10 01:38:45;;;;;;;4.35;3.75;;;;;;;25.65;30.60;87069.69;4966092;28;20212;-88
2023/07/10 01:41:24;;;;;;;4.47;4.07;;;;;;;25.60;30.63;87063.19;4971860;28;20219;-89
2023/07/10 01:43:51;;;;;;;5.00;3.70;;;;;;;25.55;30.87;87105.28;4971392;28;20203;-88
2023/07/10 01:46:20;;;;;;;4.88;3.70;;;;;;;25.53;31.24;87107.66;4971786;28;20232;-88
2023/07/10 01:48:47;;;;;;;5.13;3.88;;;;;;;25.43;31.23;87028.25;4971595;28;20196;-87
2023/07/10 01:51:24;;;;;;;4.30;3.90;;;;;;;25.38;31.46;87034.25;4971679;28;20228;-88
2023/07/10 01:53:53;;;;;;;4.38;3.97;;;;;;;25.33;31.35;87019.16;4971566;28;20192;-87
2023/07/10 01:56:22;;;;;;;3.78;3.42;;;;;;;25.38;31.40;87071.78;4969564;28;20234;-88
2023/07/10 01:58:59;;;;;;;;;;;;;;;;;;;;;
2023/07/10 02:01:26;;;;;;;4.18;3.72;;;;;;;25.49;30.71;87034.25;4971230;28;20227;-88
2023/07/10 02:03:53;;;;;;;5.95;3.67;;;;;;;25.53;30.60;87050.53;4972933;28;20192;-88
2023/07/10 02:06:21;;;;;;;5.88;3.90;;;;;;;25.55;30.59;87040.25;4971673;28;20220;-88
2023/07/10 02:08:48;;;;;;;5.88;3.90;;;;;;;25.58;30.32;86999.13;4971399;28;20205;-88
2023/07/10 02:11:24;;;;;;;4.45;4.05;;;;;;;25.58;30.39;86981.44;4962309;28;20670;-89
2023/07/10 02:13:50;;;;;;;5.60;3.72;;;;;;;25.59;30.01;86948.66;4969540;28;20208;-87
2023/07/10 02:16:16;;;;;;;3.70;3.40;;;;;;;25.52;30.54;86907.06;4971229;28;20249;-88
2023/07/10 02:18:43;;;;;;;4.40;4.00;;;;;;;25.53;30.08;86857.78;4971593;28;20207;-89
2023/07/10 02:21:10;;;;;;;4.40;3.90;;;;;;;25.52;29.92;86785.34;4971191;28;20228;-88
2023/07/10 02:23:51;;;;;;;;;;;;;;;;;;;;;
2023/07/10 02:26:19;;;;;;;4.68;3.53;;;;;;;25.51;30.31;86784.63;4970693;28;20227;-89
2023/07/10 02:28:46;;;;;;;5.07;3.70;;;;;;;25.54;30.03;86823.13;4969666;28;20224;-89
2023/07/10 02:31:12;;;;;;;4.63;3.75;;;;;;;25.52;30.10;86816.91;4969867;28;20203;-89
2023/07/10 02:33:39;;;;;;;4.40;3.75;;;;;;;25.48;30.39;86862.56;4970789;28;20188;-88
2023/07/10 02:36:06;;;;;;;3.85;3.40;;;;;;;25.50;30.40;86866.63;4970878;28;20603;-87
2023/07/10 02:38:33;;;;;;;4.28;3.60;;;;;;;25.49;30.35;86892.22;4963064;28;20197;-87
2023/07/10 02:41:00;;;;;;;8.13;3.88;;;;;;;25.46;30.39;86864.25;4971278;28;20215;-89
2023/07/10 02:43:28;;;;;;;4.60;4.10;;;;;;;25.41;30.85;86862.34;4968366;28;20625;-87
2023/07/10 02:45:56;;;;;;;4.47;3.75;;;;;;;25.36;30.94;86876.94;4970848;28;20271;-88
2023/07/10 02:48:23;;;;;;;4.70;4.03;;;;;;;25.35;30.77;86903.72;4970752;28;20207;-89
2023/07/10 02:50:57;;;;;;;4.20;3.80;;;;;;;25.29;31.41;86930.00;4970593;28;20188;-87
2023/07/10 02:53:24;;;;;;;4.30;3.70;;;;;;;25.18;31.39;86848.50;4970273;28;20203;-88
2023/07/10 02:55:50;;;;;;;5.28;3.83;;;;;;;25.07;31.73;86825.53;4970469;28;20228;-88
2023/07/10 02:58:17;;;;;;;7.63;4.25;;;;;;;24.90;31.96;86756.50;4970198;28;20196;-88
2023/07/10 03:00:45;;;;;;;4.68;3.80;;;;;;;24.82;31.92;86825.78;4968702;28;20223;-87
2023/07/10 03:03:11;;;;;;;5.28;3.60;;;;;;;24.84;32.46;86979.09;4965640;28;20207;-87
2023/07/10 03:05:38;;;;;;;5.05;4.03;;;;;;;24.82;32.37;86944.72;4971235;28;20222;-87
2023/07/10 03:08:04;;;;;;;6.38;3.80;;;;;;;24.85;31.98;86970.03;4970315;28;20959;-88
2023/07/10 03:10:31;;;;;;;5.00;3.80;;;;;;;24.88;31.63;86897.41;4970607;28;20223;-88
2023/07/10 03:12:57;;;;;;;4.05;3.63;;;;;;;24.93;31.37;86913.19;4969691;28;20207;-89
2023/07/10 03:15:24;;;;;;;20.55;18.50;;;;;;;24.94;31.31;86845.59;4968772;28;20693;-87
2023/07/10 03:17:51;;;;;;;12.55;11.40;;;;;;;24.94;31.26;86851.59;4970533;28;20669;-88
2023/07/10 03:20:19;;;;;;;5.75;5.10;;;;;;;24.96;31.12;86812.41;4962343;28;20621;-88
2023/07/10 03:22:51;;;;;;;5.25;3.95;;;;;;;24.99;30.90;86792.34;4968798;28;20749;-87
2023/07/10 03:25:18;;;;;;;4.90;3.90;;;;;;;24.98;30.83;86777.78;4970167;28;20230;-89
2023/07/10 03:27:48;;;;;;;4.90;3.70;;;;;;;24.98;31.23;86783.03;4969743;28;20694;-88
2023/07/10 03:30:14;;;;;;;4.60;3.45;;;;;;;24.98;31.02;86728.56;4973696;28;20206;-88
2023/07/10 03:32:42;;;;;;;4.20;3.80;;;;;;;24.99;30.80;86752.94;4970525;28;20208;-87
2023/07/10 03:35:10;;;;;;;4.82;3.70;;;;;;;25.04;30.49;86700.34;4971122;28;20304;-89
2023/07/10 03:37:36;;;;;;;5.72;3.33;;;;;;;25.09;30.33;86712.78;4969991;28;20227;-87
2023/07/10 03:40:03;;;;;;;5.10;3.90;;;;;;;25.08;30.63;86677.16;4969899;28;20215;-88
2023/07/10 03:42:30;;;;;;;5.28;3.78;;;;;;;25.06;30.57;86657.81;4969291;28;20235;-88
2023/07/10 03:44:56;;;;;;;5.95;3.83;;;;;;;25.01;30.68;86661.91;4968796;28;20224;-88
2023/07/10 03:47:27;;;;;;;4.40;3.35;;;;;;;25.03;30.72;86664.03;4967500;28;20204;-87
2023/07/10 03:49:53;;;;;;;3.67;3.35;;;;;;;24.98;30.73;86602.44;4969570;28;20255;-88
2023/07/10 03:52:21;;;;;;;5.32;3.60;;;;;;;24.95;31.09;86613.91;4969213;28;20196;-85
2023/07/10 03:54:48;;;;;;;4.03;3.30;;;;;;;25.03;30.61;86651.63;4969646;28;20247;-86
2023/07/10 03:57:14;;;;;;;7.45;4.28;;;;;;;25.06;30.47;86597.38;4968161;28;20204;-86
2023/07/10 03:59:41;;;;;;;4.47;3.85;;;;;;;25.15;30.26;86622.69;4970197;28;20624;-87
2023/07/10 04:02:07;;;;;;;4.97;3.70;;;;;;;25.15;30.32;86585.88;4969980;28;20255;-86
2023/07/10 04:04:33;;;;;;;4.65;3.65;;;;;;;25.19;30.46;86567.94;4969348;28;20204;-86
2023/07/10 04:07:00;;;;;;;4.93;3.88;;;;;;;25.25;29.99;86584.41;4969605;28;20208;-87
2023/07/10 04:09:27;;;;;;;4.07;3.63;;;;;;;25.30;30.20;86636.25;4970444;28;20197;-86
2023/07/10 04:11:54;;;;;;;3.97;3.67;;;;;;;25.30;30.35;86573.84;4969915;28;20196;-88
2023/07/10 04:14:20;;;;;;;8.00;3.85;;;;;;;25.27;30.17;86476.84;4969919;28;20247;-87
2023/07/10 04:16:52;;;;;;;6.50;3.80;;;;;;;25.28;30.16;86468.47;4970379;28;20287;-86
2023/07/10 04:22:22;;;;;;;6.75;3.72;;;;;;;25.36;30.04;86458.88;4964141;28;20234;-89
2023/07/10 04:24:49;;;;;;;4.57;3.75;;;;;;;25.39;29.94;86468.41;4970671;28;20228;-87
2023/07/10 04:27:16;;;;;;;4.63;3.97;;;;;;;25.37;29.73;86375.44;4971695;28;20693;-89
2023/07/10 04:29:42;;;;;;;5.55;4.60;;;;;;;25.44;29.79;86419.59;4970202;28;20220;-86
2023/07/10 04:32:10;;;;;;;6.38;5.10;;;;;;;25.50;29.73;86475.50;4970505;28;20243;-86
2023/07/10 04:34:36;;;;;;;4.38;3.67;;;;;;;25.50;29.76;86398.53;4968721;28;20200;-88
2023/07/10 04:37:02;;;;;;;4.78;4.18;;;;;;;25.49;30.02;86376.75;4967051;28;20617;-87
2023/07/10 04:39:29;;;;;;;6.60;4.80;;;;;;;25.57;29.63;86419.75;4972174;28;20204;-86
2023/07/10 04:41:56;;;;;;;4.22;3.83;;;;;;;25.60;29.52;86413.47;4972157;28;20283;-86
2023/07/10 04:44:23;;;;;;;5.30;4.80;;;;;;;25.59;29.99;86380.50;4972160;28;20263;-87
2023/07/10 04:46:50;;;;;;;5.00;3.90;;;;;;;25.58;29.99;86362.59;4971192;28;20596;-86
2023/07/10 04:49:19;;;;;;;5.70;3.55;;;;;;;25.61;29.81;86353.69;4971578;28;20204;-87
2023/07/10 04:51:45;;;;;;;4.25;3.85;;;;;;;25.62;29.84;86363.00;4968645;28;20254;-87
2023/07/10 04:54:12;;;;;;;5.10;3.60;;;;;;;25.65;29.80;86391.00;4969611;28;20212;-88
2023/07/10 04:56:38;;;;;;;5.07;4.10;;;;;;;25.67;29.56;86352.47;4983582;28;20617;-86
2023/07/10 04:59:06;;;;;;;4.28;3.88;;;;;;;25.71;29.64;86381.13;4987439;28;20212;-86
2023/07/10 05:01:33;;;;;;;5.88;3.97;;;;;;;25.76;29.56;86393.53;4997681;28;20258;-89
2023/07/10 05:04:00;;;;;;;4.75;4.20;;;;;;;25.74;29.66;86372.97;4997647;28;20195;-86
2023/07/10 05:06:27;;;;;;;3.75;3.42;;;;;;;25.77;29.48;86334.44;4993628;28;20222;-87
2023/07/10 05:08:55;;;;;;;5.05;3.80;;;;;;;25.82;29.35;86365.25;4981906;28;20665;-86
2023/07/10 05:11:23;;;;;;;24.48;22.08;;;;;;;25.85;29.47;86651.06;4982532;28;20274;-86
2023/07/10 05:13:49;;;;;;;6.28;4.50;;;;;;;25.90;29.68;86613.47;4993457;28;20262;-87
2023/07/10 05:16:17;;;;;;;4.47;3.88;;;;;;;25.93;29.51;86593.38;4994093;28;20716;-86
2023/07/10 05:18:43;;;;;;;4.35;3.95;;;;;;;25.97;29.67;86606.97;4978225;28;20696;-87
2023/07/10 05:21:10;;;;;;;4.10;3.63;;;;;;;26.03;29.75;86592.56;4975278;28;20224;-87
2023/07/10 05:23:36;;;;;;;5.28;4.00;;;;;;;26.06;29.55;86583.69;4974796;28;20621;-86
2023/07/10 05:26:05;;;;;;;4.70;3.58;;;;;;;26.13;29.39;86571.94;4972631;28;20259;-87
2023/07/10 05:28:37;;;;;;;6.80;4.20;;;;;;;26.20;29.45;86542.41;4974018;28;20685;-88
2023/07/10 05:31:06;;;;;;;4.95;4.05;;;;;;;26.26;29.06;86622.06;4972053;28;20204;-87
2023/07/10 05:33:34;;;;;;;5.72;3.63;;;;;;;26.39;29.34;86682.09;4972786;28;20207;-87
2023/07/10 05:36:03;;;;;;;51.42;46.28;;;;;;;26.38;29.47;86609.56;4972449;28;20737;-88
2023/07/10 05:38:31;;;;;;;14.80;12.73;;;;;;;26.47;29.04;86620.50;4972512;28;20558;-87
2023/07/10 05:41:02;;;;;;;11.23;8.13;;;;;;;26.57;29.13;86678.84;4970874;28;20758;-88
2023/07/10 05:43:29;;;;;;;6.10;4.20;;;;;;;26.61;28.96;86645.03;4964784;28;20210;-90
2023/07/10 05:45:55;;;;;;;6.30;4.05;;;;;;;26.63;29.30;86631.38;4972965;28;20807;-88
2023/07/10 05:48:22;;;;;;;9.60;4.00;;;;;;;26.70;28.98;86562.34;4972605;28;20698;-88
2023/07/10 05:50:54;;;;;;;7.65;3.83;;;;;;;26.71;28.92;86479.47;4972379;28;20207;-89
2023/07/10 05:53:21;;;;;;;6.60;3.95;;;;;;;26.68;28.68;86369.78;4972067;28;20235;-88
2023/07/10 05:55:49;;;;;;;4.60;4.07;;;;;;;26.73;28.66;86426.97;4971671;28;20232;-88
2023/07/10 05:58:16;;;;;;;7.43;3.85;;;;;;;26.79;28.51;86380.16;4970545;28;20200;-89
2023/07/10 06:00:43;;;;;;;5.70;4.10;;;;;;;26.84;28.55;86382.75;4972004;28;20270;-88
2023/07/10 06:03:10;;;;;;;5.97;3.67;;;;;;;26.79;28.13;86199.06;4971672;28;20220;-89
2023/07/10 06:05:37;;;;;;;5.32;3.60;;;;;;;26.91;28.34;86309.59;4988725;28;20231;-89
2023/07/10 06:08:09;;;;;;;4.55;3.72;;;;;;;27.03;28.30;86479.56;4990586;28;20206;-88
2023/07/10 06:10:36;;;;;;;4.25;3.85;;;;;;;27.07;28.28;86503.72;4992324;28;20253;-88
2023/07/10 06:13:05;;;;;;;7.75;3.85;;;;;;;27.08;28.45;86442.59;4982284;28;20205;-88
2023/07/10 06:15:34;;;;;;;4.40;3.60;;;;;;;27.14;28.21;86476.78;4971792;28;20286;-88
2023/07/10 06:18:01;;;;;;;6.68;3.92;;;;;;;27.28;28.81;86652.34;4981536;28;20243;-88
2023/07/10 06:20:33;;;;;;;5.70;4.38;;;;;;;27.39;28.75;86731.34;4991540;28;20215;-88
2023/07/10 06:23:04;;;;;;;4.38;3.85;;;;;;;27.47;28.67;86826.50;4991154;28;20227;-89
2023/07/10 06:25:31;;;;;;;9.50;8.43;;;;;;;27.48;28.83;86730.31;4991440;28;20787;-88
2023/07/10 06:27:57;;;;;;;6.03;4.63;;;;;;;27.36;28.55;86452.75;4979371;28;20204;-88
2023/07/10 06:30:30;;;;;;;6.18;4.55;;;;;;;27.43;28.75;86523.41;4969156;28;20833;-90
2023/07/10 06:32:59;;;;;;;4.85;3.72;;;;;;;27.45;28.03;86425.28;4961825;28;20209;-90
2023/07/10 06:35:26;;;;;;;7.38;4.03;;;;;;;27.43;28.05;86330.84;4952435;28;20232;-88
2023/07/10 06:37:52;;;;;;;8.23;3.95;;;;;;;27.41;28.71;86338.53;4964662;28;20196;-89
2023/07/10 06:40:26;;;;;;;4.45;3.60;;;;;;;27.36;28.73;86275.31;4971892;28;20297;-88
2023/07/10 06:42:55;;;;;;;5.78;4.00;;;;;;;27.38;28.87;86305.25;4971132;28;20790;-88
2023/07/10 06:45:21;;;;;;;8.82;3.80;;;;;;;27.44;28.90;86381.66;4969488;28;20240;-89
2023/07/10 06:47:48;;;;;;;4.97;3.63;;;;;;;27.59;28.64;86478.84;4971495;28;20207;-88
2023/07/10 06:50:15;;;;;;;6.47;3.90;;;;;;;27.67;28.66;86456.66;4971572;28;20196;-91
2023/07/10 06:52:44;;;;;;;6.38;3.75;;;;;;;27.69;27.92;86369.06;4971514;28;20592;-88
2023/07/10 06:55:16;;;;;;;5.30;3.65;;;;;;;27.75;28.15;86414.53;4971082;28;20227;-88
2023/07/10 06:57:44;;;;;;;4.90;3.67;;;;;;;27.82;28.07;86424.50;4971306;28;20236;-89
2023/07/10 07:00:13;;;;;;;4.97;3.50;;;;;;;27.93;27.91;86403.19;4971097;28;20200;-89
2023/07/10 07:02:39;;;;;;;6.97;4.28;;;;;;;27.99;27.11;86144.38;4968854;28;20259;-89
2023/07/10 07:05:08;;;;;;;5.47;3.90;;;;;;;28.06;26.43;86152.38;4983327;28;20234;-89
2023/07/10 07:07:36;;;;;;;10.25;6.97;;;;;;;28.17;25.80;86056.34;4990344;28;20712;-88
2023/07/10 07:10:03;;;;;;;8.32;4.40;;;;;;;28.26;24.81;85820.91;4990314;28;20262;-89
2023/07/10 07:12:29;;;;;;;5.65;4.05;;;;;;;28.38;24.26;85768.47;4990103;28;20234;-88
2023/07/10 07:14:57;;;;;;;8.02;4.10;;;;;;;28.47;23.93;85720.41;4990375;28;20600;-89
2023/07/10 07:17:26;;;;;;;5.55;3.97;;;;;;;28.48;23.56;85600.31;4983151;28;20577;-88
2023/07/10 07:19:52;;;;;;;5.13;4.25;;;;;;;28.41;23.57;85390.41;4970245;28;20669;-88
2023/07/10 07:22:19;;;;;;;6.65;3.90;;;;;;;28.31;23.68;85323.53;4970701;28;20228;-89
2023/07/10 07:24:45;;;;;;;4.10;3.72;;;;;;;28.20;24.22;85353.00;4970419;28;20208;-89
2023/07/10 07:27:14;;;;;;;8.32;4.18;;;;;;;28.18;24.58;85416.16;4970768;28;20204;-88
2023/07/10 07:29:42;;;;;;;4.18;3.83;;;;;;;28.28;25.15;85599.25;4971063;28;20228;-92
2023/07/10 07:32:13;;;;;;;7.03;4.07;;;;;;;28.31;25.25;85689.91;4969929;28;20195;-89
2023/07/10 07:34:39;;;;;;;4.85;3.63;;;;;;;28.35;25.80;85851.38;4967827;28;20299;-88
2023/07/10 07:37:07;;;;;;;7.57;4.43;;;;;;;28.36;24.92;85692.38;4970536;28;20243;-88
2023/07/10 07:39:34;;;;;;;6.05;3.60;;;;;;;28.31;25.28;85632.50;4970266;28;20231;-89
2023/07/10 07:42:03;;;;;;;5.53;4.20;;;;;;;28.26;25.25;85612.28;4970091;28;20319;-88
2023/07/10 07:44:30;;;;;;;7.78;4.03;;;;;;;28.22;25.49;85653.47;4970421;28;20215;-88
2023/07/10 07:46:58;;;;;;;6.78;4.28;;;;;;;28.14;25.66;85540.59;4970045;28;20271;-89
2023/07/10 07:49:25;;;;;;;6.43;4.40;;;;;;;28.10;26.30;85682.78;4968364;28;20215;-90
2023/07/10 07:52:06;;;;;;;;;;;;;;;;;;;;;
2023/07/10 07:54:41;;;;;;;5.50;3.95;;;;;;;28.18;26.17;85839.31;4963000;28;20212;-89
2023/07/10 07:57:28;;;;;;;6.32;4.20;;;;;;;28.17;26.19;85713.09;4970248;28;20219;-88
2023/07/10 07:59:56;;;;;;;6.45;4.18;;;;;;;28.18;25.84;85719.78;4965164;28;20299;-90
2023/07/10 08:02:23;;;;;;;6.88;4.43;;;;;;;28.13;25.92;85720.63;4969838;28;20247;-88
2023/07/10 08:04:53;;;;;;;4.88;4.18;;;;;;;28.16;26.30;85762.56;4979891;28;20250;-89
2023/07/10 08:07:23;;;;;;;4.40;4.00;;;;;;;28.13;26.47;85889.63;4969566;28;20669;-89
2023/07/10 08:09:55;;;;;;;4.32;3.97;;;;;;;28.07;26.07;85754.44;4970087;28;20204;-89
2023/07/10 08:12:22;;;;;;;5.45;4.68;;;;;;;28.05;26.03;85710.06;4969695;28;20202;-91
2023/07/10 08:14:48;;;;;;;8.73;5.95;;;;;;;27.96;26.02;85667.63;4981256;28;20715;-90
2023/07/10 08:20:07;;;;;;;5.65;4.03;;;;;;;27.74;26.64;85672.31;4965502;28;20282;-89
2023/07/10 08:22:38;;;;;;;9.95;4.35;;;;;;;27.67;27.22;85728.41;4968041;28;20621;-89
2023/07/10 08:25:08;;;;;;;6.90;4.10;;;;;;;27.66;27.68;85884.56;4969929;28;20758;-88
2023/07/10 08:27:34;;;;;;;5.85;4.07;;;;;;;27.66;27.42;85914.31;4970218;28;20208;-89
2023/07/10 08:30:04;;;;;;;9.93;4.25;;;;;;;27.56;27.85;85939.69;4969437;28;20212;-89
2023/07/10 08:32:32;;;;;;;6.05;3.78;;;;;;;27.36;28.61;85938.47;4966132;28;20207;-90
2023/07/10 08:35:13;;;;;;;;;;;;;;;;;;;;;
2023/07/10 08:48:55;;;;;;;4.93;4.30;;;;;;;26.66;31.08;86482.84;4825607;29;20337;-88
2023/07/10 08:54:44;;;;;;;9.38;4.68;;;;;;;26.09;36.79;87882.63;4855364;28;20250;-88
2023/07/10 08:57:23;;;;;;;7.47;4.55;;;;;;;26.06;37.31;88358.28;4969798;28;20220;-89
2023/07/10 08:59:56;;;;;;;6.90;4.05;;;;;;;25.75;37.55;88444.72;4969872;28;20211;-88
2023/07/10 09:02:45;;;;;;;6.07;4.72;;;;;;;25.60;38.46;88688.59;4969465;28;20220;-87
2023/07/10 09:05:15;;;;;;;4.80;4.05;;;;;;;25.62;38.65;88992.34;4983124;28;20596;-88
2023/07/10 09:07:44;;;;;;;5.20;3.97;;;;;;;25.65;38.50;89201.34;4989091;28;20215;-87
2023/07/10 09:10:19;;;;;;;5.35;4.03;;;;;;;25.64;38.81;89350.66;4982690;28;20205;-88
2023/07/10 09:12:51;;;;;;;10.10;4.35;;;;;;;25.58;41.30;90015.00;4966459;28;20238;-88
2023/07/10 09:15:25;;;;;;;6.82;4.30;;;;;;;25.51;41.37;90168.56;4970139;28;20601;-88
2023/07/10 09:18:08;;;;;;;6.03;3.95;;;;;;;25.38;44.15;90728.34;4970929;28;20200;-89
2023/07/10 09:20:36;;;;;;;7.80;4.10;;;;;;;25.25;44.57;91009.66;4950758;29;20236;-89
2023/07/10 09:23:04;;;;;;;6.80;4.20;;;;;;;25.27;44.43;91222.50;4949793;28;20229;-90
2023/07/10 09:25:35;;;;;;;4.43;4.03;;;;;;;25.21;45.12;91389.84;4949999;28;20235;-89
2023/07/10 09:28:02;;;;;;;6.30;4.18;;;;;;;25.21;44.58;91456.38;4966500;28;20212;-90
2023/07/10 09:30:55;;;;;;;6.00;4.05;;;;;;;25.08;46.54;91790.22;4958558;28;21086;-89
2023/07/10 09:33:22;;;;;;;6.47;4.20;;;;;;;24.96;46.54;91910.75;4950037;29;20216;-87
2023/07/10 09:35:49;;;;;;;5.95;4.88;;;;;;;24.93;47.18;92093.00;4950099;29;20261;-86
2023/07/10 09:38:19;;;;;;;6.35;4.35;;;;;;;25.00;47.25;92253.72;4955586;28;20231;-87
2023/07/10 09:40:48;;;;;;;8.68;4.82;;;;;;;24.92;48.52;92409.94;4969518;28;20215;-87
2023/07/10 09:43:19;;;;;;;5.85;4.70;;;;;;;24.98;48.67;92587.59;4970834;28;20771;-87
2023/07/10 09:45:47;;;;;;;4.82;4.40;;;;;;;24.99;48.24;92616.19;4972944;28;20319;-86
2023/07/10 09:48:24;;;;;;;5.22;4.35;;;;;;;24.79;50.33;92807.41;4972639;28;20251;-88
2023/07/10 09:50:56;;;;;;;8.25;5.00;;;;;;;24.74;50.24;92888.44;4972747;28;20223;-87
2023/07/10 09:53:34;;;;;;;7.10;4.45;;;;;;;24.83;50.96;93083.06;4972688;28;20196;-87
2023/07/10 09:56:02;;;;;;;8.70;4.45;;;;;;;25.09;49.76;93144.91;4972576;28;20240;-87
2023/07/10 09:58:29;;;;;;;8.38;5.20;;;;;;;25.23;53.27;93610.03;4971194;28;20213;-87
2023/07/10 10:01:00;;;;;;;36.55;33.13;;;;;;;25.42;52.38;93571.66;4971738;28;20208;-88
2023/07/10 10:03:32;;;;;;;16.50;14.70;;;;;;;25.54;51.05;93560.47;4971901;28;20282;-86
2023/07/10 10:06:00;;;;;;;6.63;5.90;;;;;;;25.78;50.91;93652.91;4991911;28;20256;-86
2023/07/10 10:08:28;;;;;;;6.93;6.13;;;;;;;26.02;50.76;93763.06;4994957;28;20210;-86
2023/07/10 10:11:06;;;;;;;7.68;5.85;;;;;;;26.28;49.80;93780.66;4994579;28;20231;-85
2023/07/10 10:13:38;;;;;;;9.13;4.90;;;;;;;26.52;47.90;93729.94;4976304;28;20608;-85
2023/07/10 10:16:08;;;;;;;7.43;5.53;;;;;;;26.61;48.45;93741.94;4971993;28;20430;-85
2023/07/10 10:18:43;;;;;;;7.53;4.82;;;;;;;26.54;47.93;93601.03;4986855;28;20200;-85
2023/07/10 10:21:12;;;;;;;13.82;5.35;;;;;;;26.70;47.44;93707.59;4993496;28;20203;-85
2023/07/10 10:23:40;;;;;;;8.00;5.05;;;;;;;26.91;46.76;93679.28;4993963;28;20219;-85
2023/07/10 10:26:27;;;;;;;12.02;9.85;;;;;;;27.24;43.90;93445.97;4993850;28;20278;-85
2023/07/10 10:29:03;;;;;;;10.95;9.95;;;;;;;27.67;42.32;93419.69;4993609;28;20204;-85
2023/07/10 10:31:36;;;;;;;6.05;4.75;;;;;;;28.03;41.50;93474.31;4972241;28;20833;-86
2023/07/10 10:34:08;;;;;;;5.88;5.05;;;;;;;28.42;40.66;93485.94;4971117;28;20215;-85
2023/07/10 10:36:45;;;;;;;7.22;5.22;;;;;;;28.73;40.44;93574.47;4972275;28;20224;-85
2023/07/10 10:39:21;;;;;;;6.32;4.85;;;;;;;29.07;38.88;93478.47;4970876;28;20203;-85
2023/07/10 10:41:56;;;;;;;7.78;4.97;;;;;;;29.27;37.79;93253.19;4967500;28;20250;-85
2023/07/10 10:44:42;;;;;;;8.07;4.93;;;;;;;29.42;36.22;92987.25;4968897;28;20234;-85
2023/07/10 10:47:25;;;;;;;5.47;4.97;;;;;;;29.43;36.44;92967.59;4966468;28;20211;-84
2023/07/10 10:50:04;;;;;;;6.03;4.75;;;;;;;29.35;36.42;92690.25;4968991;28;20208;-85
2023/07/10 10:52:40;;;;;;;6.10;5.07;;;;;;;29.37;36.21;92711.84;4970106;28;20204;-87
2023/07/10 10:55:24;;;;;;;6.60;5.30;;;;;;;29.43;35.84;92585.84;4971520;28;20228;-86
2023/07/10 10:58:10;;;;;;;6.70;4.78;;;;;;;29.73;36.38;92760.69;4971946;28;20298;-84
2023/07/10 11:00:57;;;;;;;5.53;5.03;;;;;;;29.84;36.28;92713.78;4973696;28;20204;-85
2023/07/10 11:03:29;;;;;;;5.55;4.82;;;;;;;29.95;35.24;92501.63;4971588;28;20219;-85
2023/07/10 11:06:02;;;;;;;5.45;4.70;;;;;;;30.05;34.65;92329.22;4972622;28;20717;-86
2023/07/10 11:08:34;;;;;;;5.95;4.80;;;;;;;30.00;31.23;91503.84;4972986;28;20200;-85
2023/07/10 11:11:05;;;;;;;5.60;4.85;;;;;;;29.95;30.83;91234.50;4972994;28;20201;-86
2023/07/10 11:13:35;;;;;;;5.38;4.88;;;;;;;29.97;30.71;91128.00;4973670;28;20204;-84
2023/07/10 11:16:03;;;;;;;6.05;5.40;;;;;;;29.92;30.99;91170.91;4972964;28;20731;-87
2023/07/10 11:18:30;;;;;;;6.80;5.47;;;;;;;30.07;30.74;91111.91;4987746;28;20286;-85
2023/07/10 11:20:57;;;;;;;6.25;4.68;;;;;;;30.28;29.92;91052.41;4973880;28;20208;-87
2023/07/10 11:23:36;;;;;;;5.25;4.65;;;;;;;30.41;29.82;90909.97;4973923;28;20395;-85
2023/07/10 11:26:07;;;;;;;5.70;4.47;;;;;;;30.48;28.99;90641.03;4972159;28;20223;-87
2023/07/10 11:28:35;;;;;;;5.90;4.35;;;;;;;30.55;28.02;90460.38;4972152;28;20208;-86
2023/07/10 11:31:24;;;;;;;4.63;4.20;;;;;;;30.80;27.64;90330.25;4971212;28;20204;-85
2023/07/10 11:33:53;;;;;;;6.20;4.10;;;;;;;30.99;26.71;90258.69;4971192;28;20292;-85
2023/07/10 11:36:37;;;;;;;6.93;4.90;;;;;;;31.28;27.23;90471.75;4967937;28;20228;-85
2023/07/10 11:39:20;;;;;;;6.85;4.30;;;;;;;31.46;26.61;90232.72;4969642;28;20251;-85
2023/07/10 11:42:16;;;;;;;5.07;3.88;;;;;;;31.46;25.40;89703.16;4971507;28;20203;-85
2023/07/10 11:44:54;;;;;;;4.28;3.70;;;;;;;31.21;25.92;89553.59;4971270;28;20224;-85
2023/07/10 11:47:27;;;;;;;5.10;3.92;;;;;;;31.04;26.43;89382.56;4969588;28;20211;-86
2023/07/10 11:50:16;;;;;;;8.90;3.92;;;;;;;30.97;26.11;89246.78;4974604;28;20597;-86
2023/07/10 11:52:43;;;;;;;5.40;4.20;;;;;;;30.94;26.31;89237.09;4968516;28;20219;-85
2023/07/10 11:55:15;;;;;;;4.40;4.00;;;;;;;30.92;25.95;88948.19;4971051;28;20224;-86
2023/07/10 11:57:41;;;;;;;4.28;3.88;;;;;;;30.78;24.73;88529.72;4968008;28;20292;-86
2023/07/10 12:00:30;;;;;;;5.63;3.65;;;;;;;30.89;25.07;88484.66;4970152;28;20212;-86
2023/07/10 12:03:01;;;;;;;4.20;3.80;;;;;;;30.96;25.18;88571.81;4966566;28;20212;-86
2023/07/10 12:05:35;;;;;;;4.07;3.63;;;;;;;31.17;24.15;88365.38;4965890;28;20224;-86
2023/07/10 12:08:09;;;;;;;4.50;3.45;;;;;;;31.43;23.49;88334.00;4968601;28;20692;-86
2023/07/10 12:10:38;;;;;;;6.00;3.65;;;;;;;31.71;22.66;88270.28;4970815;28;20212;-86
2023/07/10 12:13:17;;;;;;;5.05;3.78;;;;;;;31.94;23.24;88348.06;4971096;28;20258;-85
2023/07/10 12:15:49;;;;;;;7.05;3.30;;;;;;;32.10;21.13;87834.19;4970779;28;20251;-86
2023/07/10 12:18:19;;;;;;;3.65;3.17;;;;;;;32.31;21.26;88054.50;4982276;28;20195;-86
2023/07/10 12:20:51;;;;;;;3.85;3.30;;;;;;;32.29;21.77;87905.34;4989759;28;20704;-85
2023/07/10 12:23:18;;;;;;;4.50;3.15;;;;;;;32.39;21.33;87765.50;4988181;28;20699;-85
2023/07/10 12:25:49;;;;;;;3.65;3.13;;;;;;;32.49;20.73;87559.84;4968649;28;20231;-87
2023/07/10 12:28:17;;;;;;;5.50;3.10;;;;;;;32.64;19.94;87388.38;4970343;28;20208;-86
2023/07/10 12:30:48;;;;;;;6.05;5.45;;;;;;;32.45;19.83;87087.97;4969264;28;20620;-86
2023/07/10 12:33:36;;;;;;;5.55;4.05;;;;;;;32.55;20.27;87174.03;4969514;28;20220;-86
2023/07/10 12:36:06;;;;;;;6.50;3.42;;;;;;;32.45;19.20;86724.38;4969666;28;20737;-87
2023/07/10 12:38:34;;;;;;;5.03;3.20;;;;;;;32.48;19.43;86581.69;4969840;28;20196;-85
2023/07/10 12:41:03;;;;;;;3.35;2.88;;;;;;;32.59;18.83;86568.75;4968426;28;20204;-85